Time;durP1;ratioP1;P1;durP2;ratioP2;P2;SDS_P1;SDS_P2;PMS_P1;PMS_P2;Temp;Humidity;BMP_temperature;BMP_pressure;BME280_temperature;BME280_humidity;BME280_pressure;Samples;Min_cycle;Max_cycle;Signal;HPM_P1;HPM_P2
2023/04/09 00:01:05;;;;;;;23.38;16.42;;;;;;;10.54;77.44;101332.06;5025046;28;20110;-82
2023/04/09 00:03:31;;;;;;;28.30;15.43;;;;;;;10.50;77.14;101317.97;5035131;28;20030;-81
2023/04/09 00:05:56;;;;;;;30.83;15.30;;;;;;;10.58;77.26;101320.97;5036594;28;20084;-83
2023/04/09 00:08:25;;;;;;;24.05;16.38;;;;;;;10.56;77.31;101335.50;5032445;28;20057;-82
2023/04/09 00:10:51;;;;;;;35.35;15.38;;;;;;;10.57;77.61;101324.63;5016238;28;20033;-83
2023/04/09 00:13:17;;;;;;;63.55;21.55;;;;;;;10.59;77.21;101322.69;5025307;28;20030;-82
2023/04/09 00:15:42;;;;;;;41.90;18.48;;;;;;;10.59;77.36;101320.00;5019038;28;20052;-82
2023/04/09 00:18:08;;;;;;;49.50;19.08;;;;;;;10.80;77.44;101334.63;5014151;28;20075;-84
2023/04/09 00:20:33;;;;;;;31.88;16.65;;;;;;;10.86;77.15;101333.31;5012008;28;20232;-83
2023/04/09 00:22:59;;;;;;;33.28;16.15;;;;;;;10.87;76.62;101333.22;5011910;28;20092;-83
2023/04/09 00:25:24;;;;;;;24.80;15.77;;;;;;;10.76;76.91;101314.28;5011795;28;20092;-84
2023/04/09 00:27:50;;;;;;;25.08;16.25;;;;;;;10.84;77.04;101320.00;5011792;28;20041;-83
2023/04/09 00:30:15;;;;;;;27.70;14.70;;;;;;;11.00;76.46;101332.34;5011925;28;20129;-83
2023/04/09 00:32:42;;;;;;;15.88;12.60;;;;;;;11.02;77.07;101330.41;5013969;28;20497;-83
2023/04/09 00:35:08;;;;;;;28.20;14.05;;;;;;;11.02;76.65;101325.00;5015151;28;20081;-83
2023/04/09 00:37:33;;;;;;;36.42;13.75;;;;;;;11.06;76.47;101316.63;5024459;28;20126;-82
2023/04/09 00:39:59;;;;;;;24.13;13.65;;;;;;;11.15;76.02;101336.63;5013509;28;20032;-83
2023/04/09 00:42:25;;;;;;;23.48;12.57;;;;;;;11.16;76.14;101333.81;5011601;28;20033;-84
2023/04/09 00:44:50;;;;;;;16.10;11.68;;;;;;;11.16;75.74;101335.66;5011724;28;20398;-84
2023/04/09 00:47:16;;;;;;;24.63;11.25;;;;;;;11.08;75.54;101335.34;5011667;28;20104;-84
2023/04/09 00:49:43;;;;;;;7.07;5.63;;;;;;;10.85;74.55;101302.88;5012306;28;20038;-83
2023/04/09 00:52:09;;;;;;;8.52;6.38;;;;;;;11.01;74.21;101339.47;5011790;28;20034;-82
2023/04/09 00:54:34;;;;;;;15.63;10.45;;;;;;;11.02;73.65;101316.94;5013180;28;20033;-84
2023/04/09 00:57:00;;;;;;;15.20;11.43;;;;;;;10.99;74.22;101314.47;5030167;28;20085;-83
2023/04/09 00:59:26;;;;;;;16.38;12.43;;;;;;;11.17;74.67;101326.59;5032868;28;20013;-82
2023/04/09 01:01:51;;;;;;;18.00;12.10;;;;;;;11.16;74.57;101319.50;5012832;28;20030;-82
2023/04/09 01:04:17;;;;;;;23.23;11.98;;;;;;;11.24;74.86;101317.09;5027997;28;20133;-84
2023/04/09 01:07:09;;;;;;;16.90;11.77;;;;;;;11.28;74.30;101316.75;5028373;28;20064;-83
2023/04/09 01:09:41;;;;;;;18.87;10.13;;;;;;;11.33;73.45;101317.28;5028386;28;20068;-83
2023/04/09 01:12:33;;;;;;;17.70;10.48;;;;;;;11.39;73.15;101307.91;5028357;28;20041;-82
2023/04/09 01:15:04;;;;;;;20.02;9.60;;;;;;;11.48;72.50;101323.38;5028246;28;20035;-83
2023/04/09 01:17:32;;;;;;;12.18;7.88;;;;;;;11.55;72.29;101321.97;5038580;28;20105;-82
2023/04/09 01:20:05;;;;;;;9.20;7.78;;;;;;;11.58;72.10;101319.03;5033218;28;20049;-84
2023/04/09 01:22:48;;;;;;;8.85;6.93;;;;;;;11.60;70.46;101322.47;5028991;28;20033;-83
2023/04/09 01:25:36;;;;;;;18.08;7.50;;;;;;;11.58;70.83;101313.66;5043770;28;20060;-84
2023/04/09 01:28:20;;;;;;;11.73;8.18;;;;;;;11.62;70.37;101315.13;5049245;28;20060;-84
2023/04/09 01:30:49;;;;;;;17.88;9.20;;;;;;;11.63;70.50;101308.75;5047831;28;20049;-83
2023/04/09 01:33:17;;;;;;;18.65;8.50;;;;;;;11.66;70.01;101311.22;5034655;28;20140;-83
2023/04/09 01:35:45;;;;;;;14.52;9.10;;;;;;;11.65;70.12;101312.19;5016063;28;20085;-83
2023/04/09 01:38:12;;;;;;;11.68;7.50;;;;;;;11.55;70.26;101318.41;5010687;28;20044;-84
2023/04/09 01:40:38;;;;;;;43.30;11.75;;;;;;;11.53;70.56;101305.03;5010717;28;20914;-83
2023/04/09 01:43:05;;;;;;;25.92;17.95;;;;;;;11.45;70.66;101310.13;5011270;28;20022;-83
2023/04/09 01:45:32;;;;;;;26.88;17.70;;;;;;;11.47;71.43;101308.19;5009297;28;20042;-83
2023/04/09 01:47:59;;;;;;;30.52;15.25;;;;;;;11.46;71.31;101306.47;5010929;28;20072;-82
2023/04/09 01:50:25;;;;;;;25.40;15.57;;;;;;;11.50;70.71;101310.66;5011482;28;20442;-84
2023/04/09 01:52:50;;;;;;;24.70;15.13;;;;;;;11.51;70.80;101306.13;5012911;28;20045;-83
2023/04/09 01:55:16;;;;;;;25.75;15.77;;;;;;;11.54;70.74;101312.16;5026777;28;20029;-83
2023/04/09 01:57:41;;;;;;;19.95;13.40;;;;;;;11.48;71.11;101297.31;5030061;28;20026;-83
2023/04/09 02:00:08;;;;;;;21.02;15.02;;;;;;;11.40;70.41;101294.34;5015159;28;20022;-83
2023/04/09 02:02:52;;;;;;;27.80;17.73;;;;;;;11.42;70.51;101297.75;5010085;28;20022;-83
2023/04/09 02:05:22;;;;;;;26.55;17.67;;;;;;;11.35;70.81;101303.69;5010172;28;20549;-83
2023/04/09 02:07:54;;;;;;;25.88;18.25;;;;;;;11.32;70.67;101301.22;5010474;28;20026;-82
2023/04/09 02:10:25;;;;;;;34.35;19.45;;;;;;;11.24;71.07;101298.25;5007561;28;20057;-85
2023/04/09 02:12:52;;;;;;;31.33;19.83;;;;;;;11.21;71.22;101299.34;5009944;28;20025;-84
2023/04/09 02:15:20;;;;;;;32.22;19.08;;;;;;;11.10;71.56;101291.19;5009718;28;20030;-84
2023/04/09 02:17:46;;;;;;;28.52;16.63;;;;;;;11.17;72.04;101299.66;5010240;28;20025;-83
2023/04/09 02:20:16;;;;;;;20.50;14.15;;;;;;;11.13;71.71;101290.13;5010508;28;20423;-83
2023/04/09 02:22:41;;;;;;;29.27;12.70;;;;;;;11.08;71.84;101293.13;5009965;28;20026;-83
2023/04/09 02:25:07;;;;;;;31.95;13.70;;;;;;;10.90;71.31;101272.94;5010179;28;20034;-82
2023/04/09 02:27:32;;;;;;;16.30;11.20;;;;;;;10.89;71.46;101287.34;5010178;28;20029;-83
2023/04/09 02:29:57;;;;;;;16.05;11.45;;;;;;;10.84;71.87;101289.53;5010275;28;20037;-84
2023/04/09 02:32:23;;;;;;;14.30;9.07;;;;;;;10.77;71.76;101291.78;5009865;28;20050;-83
2023/04/09 02:34:48;;;;;;;13.20;9.55;;;;;;;10.71;71.59;101286.84;5009972;28;20025;-83
2023/04/09 02:37:14;;;;;;;16.77;8.60;;;;;;;10.69;71.53;101291.50;5015175;28;20037;-82
2023/04/09 02:39:39;;;;;;;34.45;8.27;;;;;;;10.63;71.42;101297.31;5024729;28;20032;-83
2023/04/09 02:42:06;;;;;;;14.45;8.32;;;;;;;10.54;71.78;101289.88;5012154;28;20034;-83
2023/04/09 02:44:32;;;;;;;12.57;7.88;;;;;;;10.42;71.49;101293.44;5009868;28;20123;-82
2023/04/09 02:46:57;;;;;;;14.07;8.30;;;;;;;10.37;71.33;101293.75;5010567;28;20030;-82
2023/04/09 02:49:23;;;;;;;12.90;7.65;;;;;;;10.28;71.68;101290.84;5010413;28;20389;-83
2023/04/09 02:51:48;;;;;;;16.02;8.60;;;;;;;10.25;71.66;101286.53;5010959;28;20113;-82
2023/04/09 02:54:14;;;;;;;13.63;8.57;;;;;;;10.21;71.88;101289.56;5026993;28;20025;-83
2023/04/09 02:56:39;;;;;;;15.52;9.85;;;;;;;10.04;71.94;101277.25;5028511;28;20018;-82
2023/04/09 02:59:05;;;;;;;15.15;10.73;;;;;;;10.05;72.18;101286.16;5014679;28;20523;-82
2023/04/09 03:01:30;;;;;;;17.10;11.43;;;;;;;9.85;72.51;101263.34;5013675;28;20030;-82
2023/04/09 03:03:55;;;;;;;23.35;11.85;;;;;;;9.85;72.75;101266.88;5011477;28;20183;-82
2023/04/09 03:06:21;;;;;;;22.42;10.73;;;;;;;9.88;71.94;101286.47;5009739;28;20029;-83
2023/04/09 03:08:46;;;;;;;32.85;12.13;;;;;;;9.76;72.72;101274.72;5009162;28;20477;-82
2023/04/09 03:11:12;;;;;;;31.88;11.07;;;;;;;9.72;72.69;101284.78;5009586;28;20073;-84
2023/04/09 03:13:37;;;;;;;16.38;10.32;;;;;;;9.78;73.05;101287.06;5010038;28;20083;-83
2023/04/09 03:16:03;;;;;;;15.75;9.85;;;;;;;9.65;73.09;101269.22;5009524;28;20049;-83
2023/04/09 03:18:28;;;;;;;17.25;10.48;;;;;;;9.66;73.12;101282.53;5009552;28;20114;-84
2023/04/09 03:20:54;;;;;;;13.27;9.60;;;;;;;9.61;73.16;101273.94;5009636;28;20037;-83
2023/04/09 03:23:19;;;;;;;15.35;9.55;;;;;;;9.72;72.38;101282.09;5009355;28;20022;-82
2023/04/09 03:25:45;;;;;;;21.85;9.52;;;;;;;9.59;72.83;101291.97;5008921;28;20038;-83
2023/04/09 03:28:10;;;;;;;16.33;9.98;;;;;;;9.37;73.02;101297.03;5013401;28;20029;-83
2023/04/09 03:30:36;;;;;;;14.40;10.40;;;;;;;9.17;73.48;101284.06;5013564;28;20030;-82
2023/04/09 03:33:01;;;;;;;27.52;10.70;;;;;;;9.17;73.86;101289.44;5012989;28;20046;-84
2023/04/09 03:35:26;;;;;;;30.48;10.32;;;;;;;9.12;74.25;101281.66;5012901;28;20025;-83
2023/04/09 03:37:52;;;;;;;16.85;11.85;;;;;;;9.18;73.61;101291.13;5013284;28;20034;-83
2023/04/09 03:40:17;;;;;;;20.13;12.40;;;;;;;9.15;73.73;101294.03;5012675;28;20018;-84
2023/04/09 03:42:43;;;;;;;26.05;11.95;;;;;;;9.10;73.90;101304.19;5012795;28;20021;-83
2023/04/09 03:45:09;;;;;;;21.02;11.93;;;;;;;9.07;74.55;101318.69;5013590;28;20034;-83
2023/04/09 03:47:34;;;;;;;20.83;11.52;;;;;;;9.08;74.42;101312.34;5013641;28;20490;-83
2023/04/09 03:50:00;;;;;;;17.48;11.45;;;;;;;9.05;74.32;101314.38;5013246;28;20056;-83
2023/04/09 03:52:25;;;;;;;38.67;11.65;;;;;;;9.07;74.38;101310.63;5024501;28;20063;-84
2023/04/09 03:54:51;;;;;;;22.42;11.15;;;;;;;9.10;74.50;101314.94;5030276;28;20041;-84
2023/04/09 03:57:16;;;;;;;34.00;13.00;;;;;;;9.07;74.46;101315.13;5020799;28;20486;-82
2023/04/09 03:59:42;;;;;;;30.70;11.15;;;;;;;8.97;74.35;101314.00;5013000;28;20076;-83
2023/04/09 04:02:07;;;;;;;17.38;10.23;;;;;;;8.93;74.14;101307.13;5022048;28;20026;-83
2023/04/09 04:04:32;;;;;;;13.90;9.27;;;;;;;8.98;74.23;101318.41;5012187;28;20088;-82
2023/04/09 04:06:58;;;;;;;18.02;9.43;;;;;;;8.89;74.30;101310.94;5012781;28;20422;-82
2023/04/09 04:09:23;;;;;;;27.33;11.30;;;;;;;8.94;74.55;101311.50;5014053;28;20166;-83
2023/04/09 04:11:49;;;;;;;23.50;11.98;;;;;;;8.91;74.62;101312.56;5010127;28;20050;-84
2023/04/09 04:14:14;;;;;;;25.05;11.93;;;;;;;8.93;74.28;101313.31;5010113;28;20075;-83
2023/04/09 04:16:40;;;;;;;26.50;10.88;;;;;;;8.94;74.33;101309.69;5010190;28;20042;-82
2023/04/09 04:19:06;;;;;;;15.05;9.00;;;;;;;8.97;74.23;101316.69;5010044;28;20038;-83
2023/04/09 04:21:31;;;;;;;30.83;8.82;;;;;;;9.01;73.41;101315.53;5009875;28;20473;-83
2023/04/09 04:23:56;;;;;;;13.45;8.13;;;;;;;9.03;73.34;101324.31;5009884;28;20539;-83
2023/04/09 04:26:22;;;;;;;14.90;9.48;;;;;;;8.99;73.13;101323.66;5009824;28;20037;-83
2023/04/09 04:28:47;;;;;;;12.85;6.88;;;;;;;8.93;72.89;101323.22;5010126;28;20525;-82
2023/04/09 04:31:13;;;;;;;15.93;7.07;;;;;;;8.82;72.74;101321.19;5009771;28;20532;-83
2023/04/09 04:33:40;;;;;;;20.15;6.82;;;;;;;8.71;72.53;101313.81;5009685;28;20061;-83
2023/04/09 04:36:07;;;;;;;13.77;7.50;;;;;;;8.75;72.51;101326.06;5009486;28;20758;-84
2023/04/09 04:38:33;;;;;;;33.97;9.43;;;;;;;8.71;72.95;101329.06;5009293;28;20049;-83
2023/04/09 04:40:59;;;;;;;10.60;6.93;;;;;;;8.62;72.99;101326.97;5009931;28;20068;-83
2023/04/09 04:43:25;;;;;;;12.82;7.78;;;;;;;8.51;73.62;101321.38;5012812;28;20117;-83
2023/04/09 04:45:50;;;;;;;11.45;7.60;;;;;;;8.45;74.02;101321.75;5013544;28;20153;-81
2023/04/09 04:48:15;;;;;;;18.92;8.00;;;;;;;8.35;74.19;101324.13;5018595;28;20018;-82
2023/04/09 04:50:41;;;;;;;13.85;9.25;;;;;;;8.34;75.01;101329.59;5027579;28;20034;-83
2023/04/09 04:53:06;;;;;;;14.55;6.82;;;;;;;8.35;74.87;101326.81;5031261;28;20097;-83
2023/04/09 04:55:35;;;;;;;8.55;7.00;;;;;;;8.33;75.12;101311.78;5033239;28;20045;-83
2023/04/09 04:58:01;;;;;;;23.10;8.73;;;;;;;8.44;74.79;101331.59;5031892;28;20052;-83
2023/04/09 05:00:26;;;;;;;25.02;10.23;;;;;;;8.51;75.36;101322.25;5027018;28;20440;-83
2023/04/09 05:02:52;;;;;;;21.45;8.48;;;;;;;8.64;75.15;101335.75;5025838;28;20440;-82
2023/04/09 05:05:17;;;;;;;14.05;7.03;;;;;;;8.72;75.15;101330.78;5012878;28;20444;-83
2023/04/09 05:07:42;;;;;;;15.23;8.10;;;;;;;8.89;74.82;101337.78;5013290;28;20443;-83
2023/04/09 05:10:09;;;;;;;23.80;7.53;;;;;;;8.95;75.23;101313.25;5013002;28;20033;-82
2023/04/09 05:12:34;;;;;;;16.52;7.45;;;;;;;9.25;74.37;101330.06;5012179;28;20501;-83
2023/04/09 05:14:59;;;;;;;23.40;8.32;;;;;;;9.34;73.97;101318.72;5013782;28;20030;-84
2023/04/09 05:17:25;;;;;;;19.17;9.18;;;;;;;9.58;73.12;101333.22;5027272;28;20485;-83
2023/04/09 05:19:52;;;;;;;22.90;14.35;;;;;;;9.71;72.52;101344.00;5011548;28;20022;-83
2023/04/09 05:22:17;;;;;;;32.15;20.13;;;;;;;9.81;72.07;101335.22;5013534;28;20052;-82
2023/04/09 05:24:43;;;;;;;26.25;20.38;;;;;;;9.98;71.89;101335.91;5019873;28;20109;-84
2023/04/09 05:27:08;;;;;;;35.95;22.88;;;;;;;10.11;71.12;101337.69;5011247;28;20042;-83
2023/04/09 05:29:34;;;;;;;42.75;23.00;;;;;;;10.26;70.89;101341.19;5011234;28;20060;-83
2023/04/09 05:31:59;;;;;;;62.70;22.70;;;;;;;10.30;70.53;101337.31;5009213;28;20101;-83
2023/04/09 05:34:25;;;;;;;221.77;32.72;;;;;;;10.39;69.83;101331.31;5011001;28;20022;-83
2023/04/09 05:36:51;;;;;;;31.52;16.60;;;;;;;10.64;69.87;101339.34;5010375;28;20583;-84
2023/04/09 05:39:17;;;;;;;60.10;14.85;;;;;;;10.73;68.83;101330.63;5010704;28;20018;-85
2023/04/09 05:41:43;;;;;;;29.65;11.88;;;;;;;10.90;68.37;101349.16;5011018;28;20029;-82
2023/04/09 05:44:11;;;;;;;21.67;9.13;;;;;;;10.88;68.63;101337.66;5026487;28;20042;-84
2023/04/09 05:46:36;;;;;;;17.55;9.70;;;;;;;11.08;67.47;101346.09;5010391;28;20021;-84
2023/04/09 05:49:02;;;;;;;18.92;8.25;;;;;;;11.12;67.57;101347.63;5014437;28;20030;-82
2023/04/09 05:51:27;;;;;;;10.98;7.55;;;;;;;11.25;66.83;101351.16;5026236;28;20033;-82
2023/04/09 05:53:53;;;;;;;29.08;12.18;;;;;;;11.25;66.18;101351.16;5025587;28;20029;-84
2023/04/09 05:56:21;;;;;;;33.60;17.58;;;;;;;11.29;65.87;101358.00;5010331;28;20056;-85
2023/04/09 05:58:47;;;;;;;31.42;17.17;;;;;;;11.31;66.00;101351.53;5010435;28;20025;-83
2023/04/09 06:01:12;;;;;;;25.73;15.15;;;;;;;11.21;66.12;101349.63;5011016;28;20425;-83
2023/04/09 06:03:38;;;;;;;26.00;14.45;;;;;;;11.12;66.48;101344.91;5011677;28;20022;-83
2023/04/09 06:06:04;;;;;;;23.33;14.88;;;;;;;11.35;66.35;101352.19;5010695;28;20026;-82
2023/04/09 06:08:29;;;;;;;23.67;12.35;;;;;;;11.41;67.08;101349.91;5010744;28;20775;-82
2023/04/09 06:10:55;;;;;;;20.58;11.55;;;;;;;11.32;67.00;101349.72;5010858;28;20034;-83
2023/04/09 06:13:21;;;;;;;16.00;10.40;;;;;;;11.14;67.12;101361.81;5012452;28;20022;-82
2023/04/09 06:15:46;;;;;;;26.67;10.68;;;;;;;10.90;67.27;101357.22;5010553;28;20036;-84
2023/04/09 06:18:12;;;;;;;27.95;10.60;;;;;;;10.80;68.69;101358.84;5009940;28;20493;-82
2023/04/09 06:20:38;;;;;;;27.02;11.48;;;;;;;10.68;69.59;101362.41;5009891;28;20183;-82
2023/04/09 06:23:04;;;;;;;27.13;12.00;;;;;;;10.56;70.34;101371.31;5011539;28;20116;-82
2023/04/09 06:25:29;;;;;;;25.55;14.18;;;;;;;10.50;70.64;101363.69;5009510;28;20106;-84
2023/04/09 06:27:56;;;;;;;26.90;13.77;;;;;;;10.62;71.43;101365.53;5009632;28;20021;-84
2023/04/09 06:30:21;;;;;;;23.95;14.07;;;;;;;10.74;71.42;101375.41;5009186;28;20025;-83
2023/04/09 06:32:47;;;;;;;23.60;12.93;;;;;;;10.81;71.11;101373.16;5009298;28;20054;-83
2023/04/09 06:35:14;;;;;;;25.27;13.43;;;;;;;10.93;70.97;101381.22;5007901;28;20040;-84
2023/04/09 06:37:39;;;;;;;28.20;14.60;;;;;;;10.85;71.13;101380.94;5009190;28;20050;-83
2023/04/09 06:40:06;;;;;;;28.17;16.05;;;;;;;10.68;71.91;101381.22;5009250;28;20068;-83
2023/04/09 06:42:31;;;;;;;21.52;15.02;;;;;;;10.75;72.15;101382.53;5010487;28;20030;-82
2023/04/09 06:44:57;;;;;;;22.95;14.30;;;;;;;10.79;72.48;101380.50;5022378;28;20056;-82
2023/04/09 06:47:22;;;;;;;25.63;14.35;;;;;;;10.91;72.59;101377.81;5014255;28;20130;-83
2023/04/09 06:49:48;;;;;;;28.40;14.23;;;;;;;10.89;72.47;101373.47;5024444;28;20026;-83
2023/04/09 06:52:13;;;;;;;20.02;12.48;;;;;;;10.89;72.80;101385.09;5029540;28;20034;-83
2023/04/09 06:54:39;;;;;;;18.20;12.48;;;;;;;10.83;73.33;101377.47;5028148;28;20026;-83
2023/04/09 06:57:06;;;;;;;16.10;11.40;;;;;;;10.85;73.23;101375.53;5008952;28;20034;-83
2023/04/09 06:59:32;;;;;;;63.75;21.55;;;;;;;10.90;73.57;101376.06;5009547;28;20092;-83
2023/04/09 07:01:58;;;;;;;29.48;11.88;;;;;;;10.90;73.64;101378.75;5012658;28;20026;-84
2023/04/09 07:04:24;;;;;;;14.82;9.60;;;;;;;11.09;73.81;101374.75;5013088;28;20493;-84
2023/04/09 07:06:50;;;;;;;14.32;11.00;;;;;;;11.08;73.01;101362.25;5013620;28;20022;-84
2023/04/09 07:09:17;;;;;;;15.38;10.65;;;;;;;11.11;73.92;101379.06;5012715;28;20028;-82
2023/04/09 07:11:42;;;;;;;16.70;12.63;;;;;;;11.01;74.34;101369.91;5013516;28;20048;-85
2023/04/09 07:14:08;;;;;;;17.75;13.13;;;;;;;11.14;74.68;101377.97;5013292;28;20458;-84
2023/04/09 07:16:33;;;;;;;17.92;12.48;;;;;;;11.21;74.64;101373.88;5012530;28;20425;-84
2023/04/09 07:18:58;;;;;;;15.35;10.65;;;;;;;11.00;74.79;101372.72;5013107;28;20037;-83
2023/04/09 07:21:25;;;;;;;17.95;11.95;;;;;;;10.80;75.73;101363.34;5013316;28;20056;-83
2023/04/09 07:23:51;;;;;;;18.17;13.10;;;;;;;10.79;75.74;101370.56;5033039;28;20132;-83
2023/04/09 07:26:16;;;;;;;26.13;14.38;;;;;;;11.14;76.06;101377.97;5020257;28;20113;-83
2023/04/09 07:28:42;;;;;;;22.77;14.10;;;;;;;11.20;75.12;101373.00;5011835;28;20113;-83
2023/04/09 07:31:07;;;;;;;18.92;12.52;;;;;;;11.44;74.35;101375.75;5012601;28;20029;-83
2023/04/09 07:33:33;;;;;;;49.30;13.65;;;;;;;11.67;72.94;101364.16;5012465;28;20050;-83
2023/04/09 07:35:58;;;;;;;17.98;9.65;;;;;;;11.61;72.23;101377.22;5011080;28;20045;-83
2023/04/09 07:38:23;;;;;;;23.77;14.13;;;;;;;11.34;73.26;101372.03;5012547;28;20033;-84
2023/04/09 07:40:49;;;;;;;17.25;11.27;;;;;;;11.41;73.22;101371.44;5013130;28;20041;-83
2023/04/09 07:43:15;;;;;;;17.52;10.10;;;;;;;11.40;73.83;101360.81;5013703;28;20032;-83
2023/04/09 07:45:41;;;;;;;31.40;11.13;;;;;;;11.31;73.52;101366.84;5013792;28;20145;-84
2023/04/09 07:48:08;;;;;;;19.67;10.50;;;;;;;11.47;73.07;101370.13;5029002;28;20116;-82
2023/04/09 07:50:33;;;;;;;15.32;11.23;;;;;;;11.33;73.06;101367.59;5028205;28;20034;-82
2023/04/09 07:52:59;;;;;;;18.95;12.40;;;;;;;11.22;73.46;101364.84;5023528;28;20026;-83
2023/04/09 07:55:24;;;;;;;24.63;12.55;;;;;;;11.41;73.99;101371.44;5014630;28;20030;-81
2023/04/09 07:57:50;;;;;;;19.65;11.85;;;;;;;11.26;73.90;101366.31;5013815;28;20030;-83
2023/04/09 08:00:16;;;;;;;24.02;13.07;;;;;;;11.17;74.25;101377.75;5011947;28;20030;-84
2023/04/09 08:02:42;;;;;;;20.67;12.77;;;;;;;11.28;75.32;101385.94;5013772;28;20026;-83
2023/04/09 08:05:08;;;;;;;15.10;11.18;;;;;;;11.34;74.38;101391.72;5022655;28;20474;-83
2023/04/09 08:07:34;;;;;;;19.50;10.98;;;;;;;11.57;73.99;101386.47;5013068;28;20025;-83
2023/04/09 08:09:59;;;;;;;37.88;13.32;;;;;;;11.63;74.04;101381.50;5012513;28;20422;-82
2023/04/09 08:12:25;;;;;;;14.30;8.95;;;;;;;11.51;73.53;101385.09;5011502;28;20144;-82
2023/04/09 08:14:51;;;;;;;25.88;8.95;;;;;;;11.36;73.63;101380.84;5012212;28;20504;-82
2023/04/09 08:17:16;;;;;;;16.58;9.50;;;;;;;11.27;74.65;101382.38;5012061;28;20037;-83
2023/04/09 08:19:42;;;;;;;24.33;8.27;;;;;;;11.07;73.90;101382.94;5011587;28;20033;-83
2023/04/09 08:22:07;;;;;;;13.70;10.25;;;;;;;10.98;75.23;101380.06;5011136;28;20025;-84
2023/04/09 08:24:33;;;;;;;13.18;9.10;;;;;;;11.01;75.46;101388.75;5012921;28;20045;-82
2023/04/09 08:26:58;;;;;;;15.50;9.20;;;;;;;11.07;75.94;101376.72;5012547;28;20022;-83
2023/04/09 08:29:25;;;;;;;12.32;8.52;;;;;;;11.30;75.00;101378.59;5013561;28;20033;-83
2023/04/09 08:31:51;;;;;;;13.82;9.88;;;;;;;11.29;73.98;101379.56;5012772;28;20096;-83
2023/04/09 08:34:19;;;;;;;20.63;9.55;;;;;;;11.36;74.23;101394.31;5028000;28;20437;-83
2023/04/09 08:36:46;;;;;;;13.23;8.57;;;;;;;11.47;73.28;101394.38;5011317;28;20030;-84
2023/04/09 08:39:11;;;;;;;18.80;10.13;;;;;;;11.45;73.51;101399.88;5012274;28;20022;-84
2023/04/09 08:41:46;;;;;;;17.00;10.68;;;;;;;11.47;73.28;101370.13;5013938;28;20037;-83
2023/04/09 08:44:12;;;;;;;25.48;8.60;;;;;;;11.57;73.18;101387.34;5013168;28;20033;-82
2023/04/09 08:46:37;;;;;;;16.85;10.73;;;;;;;11.56;73.57;101385.63;5018780;28;20030;-84
2023/04/09 08:49:03;;;;;;;44.83;10.25;;;;;;;11.67;73.95;101385.72;5029120;28;20026;-82
2023/04/09 08:51:28;;;;;;;21.17;11.10;;;;;;;11.49;73.67;101389.75;5026599;28;20040;-83
2023/04/09 08:53:58;;;;;;;13.93;10.65;;;;;;;11.51;73.42;101371.63;5013897;28;20021;-83
2023/04/09 08:56:25;;;;;;;26.45;10.43;;;;;;;11.59;73.59;101381.88;5012679;28;20037;-84
2023/04/09 08:58:52;;;;;;;21.00;10.32;;;;;;;11.77;73.18;101377.84;5011799;28;20136;-83
2023/04/09 09:01:27;;;;;;;18.05;10.13;;;;;;;11.84;73.83;101381.78;5011961;28;20040;-83
2023/04/09 09:03:56;;;;;;;11.65;9.43;;;;;;;11.82;72.91;101381.91;5011937;28;20033;-85
2023/04/09 09:06:28;;;;;;;15.57;10.32;;;;;;;11.68;73.07;101382.03;5009465;28;20033;-83
2023/04/09 09:09:16;;;;;;;15.73;10.35;;;;;;;11.81;73.23;101379.31;5011777;28;20025;-83
2023/04/09 09:11:44;;;;;;;15.38;10.43;;;;;;;11.87;73.09;101374.34;5011316;28;20076;-83
2023/04/09 09:14:18;;;;;;;17.27;11.27;;;;;;;12.00;72.60;101369.75;5011947;28;20018;-83
2023/04/09 09:17:02;;;;;;;15.32;9.68;;;;;;;11.98;71.43;101374.41;5013267;28;20030;-82
2023/04/09 09:19:30;;;;;;;22.98;9.93;;;;;;;11.87;71.75;101379.72;5012267;28;20026;-82
2023/04/09 09:22:00;;;;;;;23.45;12.23;;;;;;;12.12;71.67;101375.16;5027546;28;20036;-82
2023/04/09 09:24:26;;;;;;;14.05;10.85;;;;;;;12.22;70.93;101378.91;5018884;28;20030;-84
2023/04/09 09:26:53;;;;;;;20.20;10.02;;;;;;;12.33;69.82;101368.13;5017356;28;20552;-84
2023/04/09 09:29:19;;;;;;;49.40;12.82;;;;;;;12.27;70.10;101376.69;5011562;28;20112;-83
2023/04/09 09:31:49;;;;;;;20.60;11.10;;;;;;;12.36;69.27;101368.78;5011548;28;20088;-83
2023/04/09 09:34:16;;;;;;;13.48;10.43;;;;;;;12.28;68.86;101364.94;5011309;28;20022;-84
2023/04/09 09:36:42;;;;;;;22.30;11.63;;;;;;;12.55;69.04;101365.50;5012820;28;20034;-82
2023/04/09 09:39:12;;;;;;;12.25;9.85;;;;;;;12.64;67.22;101356.69;5014651;28;20033;-83
2023/04/09 09:41:41;;;;;;;15.98;9.68;;;;;;;12.81;65.38;101360.78;5020279;28;20045;-81
2023/04/09 09:44:07;;;;;;;14.93;10.07;;;;;;;12.94;64.76;101359.66;5031219;28;20454;-83
2023/04/09 09:46:35;;;;;;;12.80;9.38;;;;;;;12.86;64.66;101354.03;5048761;28;20277;-82
2023/04/09 09:49:01;;;;;;;14.43;10.95;;;;;;;12.98;65.98;101362.97;5031425;28;20034;-81
2023/04/09 09:51:27;;;;;;;33.10;12.73;;;;;;;13.00;65.15;101361.00;5022994;28;20577;-82
2023/04/09 09:53:56;;;;;;;16.90;10.20;;;;;;;12.99;64.83;101354.78;5014071;28;20041;-82
2023/04/09 09:56:25;;;;;;;16.23;8.90;;;;;;;13.02;63.03;101343.72;5013248;28;20026;-82
2023/04/09 09:59:06;;;;;;;16.50;10.00;;;;;;;12.86;64.04;101332.44;5011436;28;20056;-83
2023/04/09 10:01:31;;;;;;;14.23;9.77;;;;;;;13.02;65.05;101343.72;5010368;28;20022;-82
2023/04/09 10:03:59;;;;;;;24.73;12.18;;;;;;;13.28;64.23;101344.34;5010966;28;20053;-84
2023/04/09 10:06:26;;;;;;;21.13;11.00;;;;;;;13.48;62.37;101340.03;5009338;28;20030;-85
2023/04/09 10:08:57;;;;;;;24.30;8.73;;;;;;;13.51;61.14;101339.78;5011088;28;20029;-83
2023/04/09 10:11:23;;;;;;;15.23;9.68;;;;;;;13.33;63.05;101327.78;5018552;28;20025;-83
2023/04/09 10:13:56;;;;;;;16.00;9.85;;;;;;;13.25;63.97;101341.88;5010720;28;20186;-84
2023/04/09 10:16:22;;;;;;;20.88;10.82;;;;;;;13.21;63.90;101344.97;5009518;28;20030;-84
2023/04/09 10:18:48;;;;;;;25.17;10.85;;;;;;;13.22;64.14;101346.69;5009739;28;20456;-84
2023/04/09 10:21:37;;;;;;;21.20;9.80;;;;;;;13.11;63.77;101344.00;5009746;28;20029;-84
2023/04/09 10:24:06;;;;;;;23.05;11.63;;;;;;;12.94;65.60;101339.91;5009298;28;20473;-83
2023/04/09 10:26:33;;;;;;;23.67;11.07;;;;;;;12.90;66.13;101341.97;5009027;28;20571;-83
2023/04/09 10:29:05;;;;;;;15.40;10.45;;;;;;;13.21;66.88;101347.69;5024063;28;20409;-83
2023/04/09 10:32:05;;;;;;;19.38;11.13;;;;;;;13.33;66.74;101338.59;5009021;28;20201;-84
2023/04/09 10:34:34;;;;;;;17.85;11.48;;;;;;;13.23;66.37;101337.59;4967101;28;20578;-83
2023/04/09 10:37:00;;;;;;;15.52;9.85;;;;;;;13.29;66.38;101318.19;4968874;28;20045;-82
2023/04/09 10:39:40;;;;;;;19.52;11.13;;;;;;;13.29;66.74;101331.69;4968629;28;20042;-83
2023/04/09 10:42:20;;;;;;;38.22;12.93;;;;;;;13.52;65.47;101330.66;4968311;28;20105;-83
2023/04/09 10:45:03;;;;;;;13.40;10.68;;;;;;;13.45;66.79;101324.94;4978306;28;20043;-82
2023/04/09 10:47:34;;;;;;;24.52;10.98;;;;;;;13.84;66.06;101336.97;4980671;28;20038;-84
2023/04/09 10:50:25;;;;;;;22.20;10.80;;;;;;;14.07;64.84;101326.91;4972255;28;20030;-83
2023/04/09 10:52:53;;;;;;;18.05;11.32;;;;;;;14.09;64.56;101319.53;4968186;28;20038;-85
2023/04/09 10:55:39;;;;;;;25.33;11.38;;;;;;;14.39;64.38;101316.94;4967484;28;20069;-83
2023/04/09 10:58:06;;;;;;;39.40;13.90;;;;;;;14.59;63.08;101297.09;4967536;28;20039;-83
2023/04/09 11:00:36;;;;;;;15.75;10.60;;;;;;;14.52;63.30;101311.31;4967139;28;20031;-83
2023/04/09 11:03:03;;;;;;;15.15;9.73;;;;;;;14.55;61.94;101302.94;4967396;28;20577;-83
2023/04/09 11:05:33;;;;;;;17.55;8.98;;;;;;;14.54;60.59;101293.09;4951004;28;20031;-84
2023/04/09 11:08:05;;;;;;;18.90;9.32;;;;;;;14.53;60.46;101303.03;4967401;28;20058;-84
2023/04/09 11:10:31;;;;;;;;;;;;;;;14.50;61.43;101295.19;4973546;28;20475;-84
2023/04/09 11:12:57;;;;;;;19.75;10.20;;;;;;;14.38;61.34;101287.28;5008699;28;20265;-83
2023/04/09 11:15:22;;;;;;;13.02;9.27;;;;;;;14.33;61.25;101294.94;5008597;28;20030;-83